createdAt,value
2018-12-02T00:00:20.495Z,8.83
2018-12-02T00:01:20.525Z,8.85
2018-12-02T00:02:20.491Z,8.8
2018-12-02T00:03:20.355Z,8.82
2018-12-02T00:04:20.342Z,8.82
2018-12-02T00:05:20.515Z,8.82
2018-12-02T00:06:20.546Z,8.83
2018-12-02T00:07:20.317Z,8.82
2018-12-02T00:08:20.401Z,8.83
2018-12-02T00:09:20.847Z,8.83
2018-12-02T00:10:20.364Z,8.83
2018-12-02T00:11:20.637Z,8.83
2018-12-02T00:12:20.518Z,8.82
2018-12-02T00:13:20.363Z,8.82
2018-12-02T00:14:20.480Z,8.83
2018-12-02T00:15:20.375Z,8.83
2018-12-02T00:16:20.404Z,8.82
2018-12-02T00:17:20.363Z,8.82
2018-12-02T00:18:20.339Z,8.82
2018-12-02T00:19:20.572Z,8.8
2018-12-02T00:20:20.514Z,8.79
2018-12-02T00:21:20.505Z,8.8
2018-12-02T00:22:20.487Z,8.8
2018-12-02T00:23:20.476Z,8.85
2018-12-02T00:24:20.504Z,8.82
2018-12-02T00:25:20.367Z,8.85
2018-12-02T00:26:20.351Z,8.83
2018-12-02T00:27:20.428Z,8.8
2018-12-02T00:28:20.598Z,8.82
2018-12-02T00:29:20.556Z,8.82
2018-12-02T00:30:20.516Z,8.82
2018-12-02T00:31:20.271Z,8.79
2018-12-02T00:32:20.460Z,8.8
2018-12-02T00:33:20.316Z,8.8
2018-12-02T00:34:20.361Z,8.79
2018-12-02T00:35:20.281Z,8.79
2018-12-02T00:36:21.119Z,8.8
2018-12-02T00:37:20.291Z,8.8
2018-12-02T00:38:20.317Z,8.79
2018-12-02T00:39:20.475Z,8.78
2018-12-02T00:40:20.568Z,8.8
2018-12-02T00:41:20.526Z,8.79
2018-12-02T00:42:20.486Z,8.8
2018-12-02T00:43:20.388Z,8.79
2018-12-02T00:44:20.311Z,8.82
2018-12-02T00:45:20.566Z,8.8
2018-12-02T00:46:20.424Z,8.82
2018-12-02T00:47:20.288Z,8.79
2018-12-02T00:48:20.536Z,8.8
2018-12-02T00:49:20.503Z,8.79
2018-12-02T00:50:20.248Z,8.82
2018-12-02T00:51:20.475Z,8.82
2018-12-02T00:52:20.593Z,8.8
2018-12-02T00:53:20.680Z,8.83
2018-12-02T00:54:20.500Z,8.82
2018-12-02T00:55:20.411Z,8.82
2018-12-02T00:56:20.334Z,8.85
2018-12-02T00:57:20.247Z,8.8
2018-12-02T00:58:20.288Z,8.8
2018-12-02T00:59:20.571Z,8.8
2018-12-02T01:00:20.417Z,8.82
2018-12-02T01:01:20.241Z,8.79
2018-12-02T01:02:20.389Z,8.8
2018-12-02T01:03:20.530Z,8.79
2018-12-02T01:04:20.263Z,8.79
2018-12-02T01:05:20.282Z,8.78
2018-12-02T01:06:20.285Z,8.79
2018-12-02T01:07:20.266Z,8.79
2018-12-02T01:08:20.271Z,8.78
2018-12-02T01:09:20.257Z,8.79
2018-12-02T01:10:20.299Z,8.78
2018-12-02T01:11:20.626Z,8.78
2018-12-02T01:12:20.280Z,8.79
2018-12-02T01:13:20.252Z,8.79
2018-12-02T01:14:20.330Z,8.8
2018-12-02T01:15:20.325Z,8.8
2018-12-02T01:16:20.273Z,8.8
2018-12-02T01:17:20.503Z,8.82
2018-12-02T01:18:20.232Z,8.79
2018-12-02T01:19:20.240Z,8.79
2018-12-02T01:20:20.260Z,8.8
2018-12-02T01:21:20.254Z,8.83
2018-12-02T01:22:20.294Z,8.8
2018-12-02T01:23:20.251Z,8.79
2018-12-02T01:24:20.280Z,8.8
2018-12-02T01:25:20.558Z,8.79
2018-12-02T01:26:20.197Z,8.79
2018-12-02T01:27:20.261Z,8.79
2018-12-02T01:28:20.402Z,8.76
2018-12-02T01:29:20.292Z,8.8
2018-12-02T01:30:20.234Z,8.8
2018-12-02T01:31:20.515Z,8.79
2018-12-02T01:32:20.568Z,8.79
2018-12-02T01:33:20.255Z,8.83
2018-12-02T01:34:20.518Z,8.8
2018-12-02T01:35:20.320Z,8.82
2018-12-02T01:36:20.517Z,8.83
2018-12-02T01:37:20.320Z,8.82
2018-12-02T01:38:20.405Z,8.8
2018-12-02T01:39:20.411Z,8.8
2018-12-02T01:40:20.214Z,8.8
2018-12-02T01:41:20.363Z,8.83
2018-12-02T01:42:20.277Z,8.85
2018-12-02T01:43:20.407Z,8.83
2018-12-02T01:44:20.494Z,8.85
2018-12-02T01:45:20.273Z,8.83
2018-12-02T01:46:20.355Z,8.85
2018-12-02T01:47:20.382Z,8.83
2018-12-02T01:48:20.638Z,8.86
2018-12-02T01:49:20.278Z,8.83
2018-12-02T01:50:20.378Z,8.88
2018-12-02T01:51:20.259Z,8.89
2018-12-02T01:52:20.224Z,8.89
2018-12-02T01:53:20.634Z,8.86
2018-12-02T01:54:20.282Z,8.86
2018-12-02T01:55:20.212Z,8.88
2018-12-02T01:56:20.376Z,8.88
2018-12-02T01:57:20.357Z,8.89
2018-12-02T01:58:20.256Z,8.89
2018-12-02T01:59:20.189Z,8.86
2018-12-02T02:00:20.449Z,8.88
2018-12-02T02:01:20.571Z,8.86
2018-12-02T02:02:20.446Z,8.88
2018-12-02T02:03:20.428Z,8.91
2018-12-02T02:04:20.441Z,8.91
2018-12-02T02:05:20.291Z,8.92
2018-12-02T02:06:20.227Z,8.91
2018-12-02T02:07:20.222Z,8.93
2018-12-02T02:08:20.366Z,8.92
2018-12-02T02:09:20.185Z,8.91
2018-12-02T02:10:20.188Z,8.92
2018-12-02T02:11:20.221Z,8.91
2018-12-02T02:12:20.554Z,8.92
2018-12-02T02:13:20.234Z,8.89
2018-12-02T02:14:20.156Z,8.92
2018-12-02T02:15:20.187Z,8.92
2018-12-02T02:16:20.278Z,8.89
2018-12-02T02:17:20.352Z,8.91
2018-12-02T02:18:20.479Z,8.91
2018-12-02T02:19:20.278Z,8.92
2018-12-02T02:20:20.190Z,8.92
2018-12-02T02:21:20.133Z,8.93
2018-12-02T02:22:20.344Z,8.93
2018-12-02T02:23:20.313Z,8.93
2018-12-02T02:24:20.138Z,8.93
2018-12-02T02:25:20.147Z,8.95
2018-12-02T02:26:20.157Z,8.91
2018-12-02T02:27:20.199Z,8.93
2018-12-02T02:28:20.203Z,8.93
2018-12-02T02:29:20.119Z,8.96
2018-12-02T02:30:20.154Z,8.92
2018-12-02T02:31:20.349Z,8.95
2018-12-02T02:32:20.224Z,8.95
2018-12-02T02:33:20.169Z,8.95
2018-12-02T02:34:20.166Z,8.93
2018-12-02T02:35:20.134Z,8.96
2018-12-02T02:36:20.368Z,8.95
2018-12-02T02:37:20.160Z,8.95
2018-12-02T02:38:20.288Z,8.95
2018-12-02T02:39:20.311Z,8.98
2018-12-02T02:40:20.201Z,8.96
2018-12-02T02:41:20.249Z,8.95
2018-12-02T02:42:20.388Z,8.95
2018-12-02T02:43:20.128Z,8.95
2018-12-02T02:44:20.124Z,8.99
2018-12-02T02:45:20.311Z,8.99
2018-12-02T02:46:20.153Z,8.98
2018-12-02T02:47:20.141Z,8.99
2018-12-02T02:48:20.119Z,8.99
2018-12-02T02:49:20.167Z,9
2018-12-02T02:50:20.143Z,8.98
2018-12-02T02:51:20.143Z,9
2018-12-02T02:52:20.134Z,9
2018-12-02T02:53:20.107Z,8.99
2018-12-02T02:54:20.239Z,9
2018-12-02T02:55:20.132Z,9
2018-12-02T02:56:20.133Z,9
2018-12-02T02:57:20.088Z,9.04
2018-12-02T02:58:20.126Z,9
2018-12-02T02:59:20.121Z,9
2018-12-02T03:00:20.106Z,9
2018-12-02T03:01:20.112Z,9.02
2018-12-02T03:02:20.193Z,9
2018-12-02T03:03:20.124Z,9.02
2018-12-02T03:04:20.928Z,9
2018-12-02T03:05:20.385Z,9
2018-12-02T03:06:20.186Z,9
2018-12-02T03:07:20.222Z,9
2018-12-02T03:08:20.069Z,8.99
2018-12-02T03:09:20.101Z,9.02
2018-12-02T03:10:20.100Z,9.02
2018-12-02T03:11:20.086Z,8.99
2018-12-02T03:12:20.668Z,8.99
2018-12-02T03:13:20.114Z,9
2018-12-02T03:14:20.343Z,8.99
2018-12-02T03:15:20.730Z,9
2018-12-02T03:16:20.604Z,8.99
2018-12-02T03:17:20.204Z,9
2018-12-02T03:18:20.233Z,9
2018-12-02T03:19:20.148Z,8.98
2018-12-02T03:20:20.114Z,8.98
2018-12-02T03:21:20.138Z,9
2018-12-02T03:22:20.227Z,9.02
2018-12-02T03:23:20.357Z,9.02
2018-12-02T03:24:20.435Z,9.02
2018-12-02T03:25:20.173Z,9
2018-12-02T03:26:20.185Z,8.98
2018-12-02T03:27:20.282Z,8.99
2018-12-02T03:28:20.200Z,9.02
2018-12-02T03:29:20.128Z,9
2018-12-02T03:30:20.243Z,8.98
2018-12-02T03:31:20.241Z,9
2018-12-02T03:32:20.115Z,9
2018-12-02T03:33:20.318Z,9.02
2018-12-02T03:34:20.546Z,9.02
2018-12-02T03:35:20.140Z,9.02
2018-12-02T03:36:20.501Z,9
2018-12-02T03:37:20.050Z,9
2018-12-02T03:38:20.076Z,8.99
2018-12-02T03:39:20.464Z,9
2018-12-02T03:40:20.091Z,8.96
2018-12-02T03:41:20.409Z,8.99
2018-12-02T03:42:20.110Z,9
2018-12-02T03:43:20.089Z,9
2018-12-02T03:44:20.338Z,8.99
2018-12-02T03:45:20.275Z,9.02
2018-12-02T03:46:20.117Z,8.99
2018-12-02T03:47:20.225Z,9.02
2018-12-02T03:48:20.150Z,9
2018-12-02T03:49:20.882Z,8.99
2018-12-02T03:50:20.120Z,9
2018-12-02T03:51:20.355Z,9
2018-12-02T03:52:20.439Z,9
2018-12-02T03:53:20.218Z,9.02
2018-12-02T03:54:20.324Z,9.02
2018-12-02T03:55:20.504Z,9
2018-12-02T03:56:20.044Z,9
2018-12-02T03:57:20.207Z,9.02
2018-12-02T03:58:20.275Z,9.02
2018-12-02T03:59:20.116Z,9.02
2018-12-02T04:00:20.113Z,9.04
2018-12-02T04:01:20.297Z,8.98
2018-12-02T04:02:20.099Z,9.03
2018-12-02T04:03:20.151Z,9
2018-12-02T04:04:20.163Z,9.02
2018-12-02T04:05:20.069Z,9.02
2018-12-02T04:06:20.061Z,8.99
2018-12-02T04:07:20.864Z,9.03
2018-12-02T04:08:20.063Z,9
2018-12-02T04:09:20.102Z,9.02
2018-12-02T04:10:20.077Z,9.02
2018-12-02T04:11:20.190Z,9
2018-12-02T04:12:20.445Z,8.99
2018-12-02T04:13:20.075Z,8.99
2018-12-02T04:14:20.081Z,8.96
2018-12-02T04:15:20.950Z,8.93
2018-12-02T04:16:20.289Z,8.93
2018-12-02T04:17:20.784Z,8.92
2018-12-02T04:18:20.094Z,8.93
2018-12-02T04:19:20.080Z,8.92
2018-12-02T04:20:20.087Z,8.88
2018-12-02T04:21:20.439Z,8.86
2018-12-02T04:22:20.124Z,8.86
2018-12-02T04:23:20.005Z,8.85
2018-12-02T04:24:20.204Z,8.8
2018-12-02T04:25:20.067Z,8.79
2018-12-02T04:26:19.998Z,8.8
2018-12-02T04:27:19.989Z,8.79
2018-12-02T04:28:19.994Z,8.76
2018-12-02T04:29:20.046Z,8.75
2018-12-02T04:30:20.041Z,8.78
2018-12-02T04:31:20.002Z,8.76
2018-12-02T04:32:20.034Z,8.74
2018-12-02T04:33:20.123Z,8.75
2018-12-02T04:34:20.217Z,8.72
2018-12-02T04:35:20.027Z,8.72
2018-12-02T04:36:20.273Z,8.71
2018-12-02T04:37:20.249Z,8.74
2018-12-02T04:38:20.150Z,8.72
2018-12-02T04:39:19.984Z,8.71
2018-12-02T04:40:19.993Z,8.69
2018-12-02T04:41:20.028Z,8.69
2018-12-02T04:42:20.281Z,8.72
2018-12-02T04:43:20.048Z,8.69
2018-12-02T04:44:20.050Z,8.69
2018-12-02T04:45:20.186Z,8.69
2018-12-02T04:46:20.270Z,8.69
2018-12-02T04:47:20.022Z,8.69
2018-12-02T04:48:20.002Z,8.68
2018-12-02T04:49:19.985Z,8.68
2018-12-02T04:50:20.232Z,8.66
2018-12-02T04:51:20.204Z,8.68
2018-12-02T04:52:20.269Z,8.69
2018-12-02T04:53:20.091Z,8.68
2018-12-02T04:54:20.092Z,8.66
2018-12-02T04:55:20.305Z,8.65
2018-12-02T04:56:20.193Z,8.64
2018-12-02T04:57:19.973Z,8.64
2018-12-02T04:58:20.006Z,8.62
2018-12-02T04:59:20.113Z,8.61
2018-12-02T05:00:20.139Z,8.62
2018-12-02T05:01:19.949Z,8.61
2018-12-02T05:02:20.080Z,8.59
2018-12-02T05:03:20.056Z,8.61
2018-12-02T05:04:20.128Z,8.59
2018-12-02T05:05:20.008Z,8.59
2018-12-02T05:06:20.007Z,8.61
2018-12-02T05:07:20.004Z,8.58
2018-12-02T05:08:20.069Z,8.57
2018-12-02T05:09:20.395Z,8.57
2018-12-02T05:10:20.083Z,8.57
2018-12-02T05:11:20.130Z,8.58
2018-12-02T05:12:20.137Z,8.54
2018-12-02T05:13:19.947Z,8.54
2018-12-02T05:14:19.969Z,8.54
2018-12-02T05:15:19.971Z,8.58
2018-12-02T05:16:20.120Z,8.58
2018-12-02T05:17:20.069Z,8.59
2018-12-02T05:18:20.133Z,8.59
2018-12-02T05:19:20.039Z,8.61
2018-12-02T05:20:20.079Z,8.59
2018-12-02T05:21:20.139Z,8.59
2018-12-02T05:22:19.985Z,8.58
2018-12-02T05:23:19.995Z,8.58
2018-12-02T05:24:20.059Z,8.57
2018-12-02T05:25:20.401Z,8.59
2018-12-02T05:26:19.985Z,8.58
2018-12-02T05:27:20.127Z,8.59
2018-12-02T05:28:20.268Z,8.57
2018-12-02T05:29:20.020Z,8.58
2018-12-02T05:30:20.030Z,8.57
2018-12-02T05:31:20.021Z,8.55
2018-12-02T05:32:20.143Z,8.57
2018-12-02T05:33:20.795Z,8.55
2018-12-02T05:34:20.003Z,8.57
2018-12-02T05:35:19.996Z,8.55
2018-12-02T05:36:20.070Z,8.57
2018-12-02T05:37:20.081Z,8.57
2018-12-02T05:38:20.224Z,8.54
2018-12-02T05:39:20.309Z,8.51
2018-12-02T05:40:20.013Z,8.52
2018-12-02T05:41:19.966Z,8.55
2018-12-02T05:42:19.874Z,8.52
2018-12-02T05:43:20.057Z,8.51
2018-12-02T05:44:19.993Z,8.52
2018-12-02T05:45:20.132Z,8.51
2018-12-02T05:46:20.003Z,8.52
2018-12-02T05:47:20.127Z,8.52
2018-12-02T05:48:22.515Z,8.51
2018-12-02T05:49:21.028Z,8.51
2018-12-02T05:50:19.918Z,8.48
2018-12-02T05:51:19.889Z,8.49
2018-12-02T05:52:20.095Z,8.47
2018-12-02T05:53:20.072Z,8.48
2018-12-02T05:54:19.868Z,8.47
2018-12-02T05:55:20.025Z,8.47
2018-12-02T05:56:19.856Z,8.49
2018-12-02T05:57:19.894Z,8.49
2018-12-02T05:58:19.940Z,8.48
2018-12-02T05:59:19.890Z,8.48
2018-12-02T06:00:19.968Z,8.47
2018-12-02T06:01:19.858Z,8.49
2018-12-02T06:02:19.864Z,8.47
2018-12-02T06:03:19.868Z,8.45
2018-12-02T06:04:19.873Z,8.47
2018-12-02T06:05:19.908Z,8.48
2018-12-02T06:06:19.993Z,8.47
2018-12-02T06:07:19.896Z,8.48
2018-12-02T06:08:19.853Z,8.48
2018-12-02T06:09:19.873Z,8.47
2018-12-02T06:10:19.901Z,8.47
2018-12-02T06:11:19.887Z,8.47
2018-12-02T06:12:20.136Z,8.45
2018-12-02T06:13:20.003Z,8.47
2018-12-02T06:14:20.029Z,8.47
2018-12-02T06:15:20.012Z,8.48
2018-12-02T06:16:19.983Z,8.47
2018-12-02T06:17:19.887Z,8.47
2018-12-02T06:18:19.926Z,8.47
2018-12-02T06:19:19.864Z,8.47
2018-12-02T06:20:20.082Z,8.45
2018-12-02T06:21:19.877Z,8.47
2018-12-02T06:22:19.859Z,8.45
2018-12-02T06:23:20.068Z,8.45
2018-12-02T06:24:20.043Z,8.48
2018-12-02T06:25:20.071Z,8.47
2018-12-02T06:26:19.851Z,8.45
2018-12-02T06:27:19.865Z,8.48
2018-12-02T06:28:20.486Z,8.47
2018-12-02T06:29:20.095Z,8.45
2018-12-02T06:30:19.955Z,8.45
2018-12-02T06:31:19.965Z,8.47
2018-12-02T06:32:20.020Z,8.45
2018-12-02T06:33:20.027Z,8.47
2018-12-02T06:34:20.030Z,8.47
2018-12-02T06:35:20.156Z,8.45
2018-12-02T06:36:20.112Z,8.47
2018-12-02T06:37:20.036Z,8.45
2018-12-02T06:38:19.871Z,8.47
2018-12-02T06:39:19.862Z,8.48
2018-12-02T06:40:19.882Z,8.48
2018-12-02T06:41:19.873Z,8.47
2018-12-02T06:42:19.864Z,8.47
2018-12-02T06:43:19.891Z,8.45
2018-12-02T06:44:19.858Z,8.48
2018-12-02T06:45:20.087Z,8.48
2018-12-02T06:46:20.002Z,8.47
2018-12-02T06:47:20.357Z,8.48
2018-12-02T06:48:19.890Z,8.47
2018-12-02T06:49:19.886Z,8.49
2018-12-02T06:50:20.133Z,8.45
2018-12-02T06:51:20.065Z,8.45
2018-12-02T06:52:20.100Z,8.47
2018-12-02T06:53:19.828Z,8.48
2018-12-02T06:54:19.834Z,8.47
2018-12-02T06:55:19.887Z,8.47
2018-12-02T06:56:19.976Z,8.48
2018-12-02T06:57:20.089Z,8.47
2018-12-02T06:58:20.328Z,8.47
2018-12-02T06:59:20.124Z,8.45
2018-12-02T07:00:20.036Z,8.47
2018-12-02T07:01:19.825Z,8.47
2018-12-02T07:02:19.796Z,8.48
2018-12-02T07:03:19.977Z,8.45
2018-12-02T07:04:20.027Z,8.45
2018-12-02T07:05:20.072Z,8.48
2018-12-02T07:06:19.864Z,8.47
2018-12-02T07:07:19.857Z,8.47
2018-12-02T07:08:19.860Z,8.47
2018-12-02T07:09:19.910Z,8.48
2018-12-02T07:10:19.793Z,8.48
2018-12-02T07:11:19.989Z,8.48
2018-12-02T07:12:19.793Z,8.44
2018-12-02T07:13:19.814Z,8.44
2018-12-02T07:14:19.946Z,8.44
2018-12-02T07:15:20.030Z,8.45
2018-12-02T07:16:19.788Z,8.45
2018-12-02T07:17:20.031Z,8.45
2018-12-02T07:18:20.028Z,8.45
2018-12-02T07:19:19.807Z,8.45
2018-12-02T07:20:19.761Z,8.47
2018-12-02T07:21:19.800Z,8.48
2018-12-02T07:22:19.799Z,8.47
2018-12-02T07:23:19.998Z,8.49
2018-12-02T07:24:20.061Z,8.48
2018-12-02T07:25:19.799Z,8.48
2018-12-02T07:26:19.936Z,8.51
2018-12-02T07:27:20.085Z,8.49
2018-12-02T07:28:19.840Z,8.51
2018-12-02T07:29:20.013Z,8.51
2018-12-02T07:30:25.216Z,8.49
2018-12-02T07:31:19.944Z,8.49
2018-12-02T07:32:20.035Z,8.48
2018-12-02T07:33:19.957Z,8.52
2018-12-02T07:34:19.818Z,8.52
2018-12-02T07:35:19.790Z,8.55
2018-12-02T07:36:19.758Z,8.55
2018-12-02T07:37:19.777Z,8.55
2018-12-02T07:38:19.770Z,8.57
2018-12-02T07:39:20.083Z,8.58
2018-12-02T07:40:19.763Z,8.57
2018-12-02T07:41:19.977Z,8.61
2018-12-02T07:42:19.814Z,8.61
2018-12-02T07:43:19.789Z,8.62
2018-12-02T07:44:19.790Z,8.62
2018-12-02T07:45:19.770Z,8.61
2018-12-02T07:46:19.743Z,8.58
2018-12-02T07:47:20.028Z,8.64
2018-12-02T07:48:19.724Z,8.59
2018-12-02T07:49:20.030Z,8.62
2018-12-02T07:50:19.754Z,8.64
2018-12-02T07:51:19.767Z,8.66
2018-12-02T07:52:19.826Z,8.65
2018-12-02T07:53:19.773Z,8.68
2018-12-02T07:54:20.033Z,8.65
2018-12-02T07:55:19.724Z,8.69
2018-12-02T07:56:19.797Z,8.72
2018-12-02T07:57:19.778Z,8.71
2018-12-02T07:58:19.927Z,8.74
2018-12-02T07:59:19.806Z,8.74
2018-12-02T08:00:19.743Z,8.76
2018-12-02T08:01:20.093Z,8.78
2018-12-02T08:02:19.957Z,8.79
2018-12-02T08:03:20.265Z,8.82
2018-12-02T08:04:20.001Z,8.79
2018-12-02T08:05:19.992Z,8.82
2018-12-02T08:06:19.926Z,8.83
2018-12-02T08:07:19.764Z,8.83
2018-12-02T08:08:19.844Z,8.88
2018-12-02T08:09:19.894Z,8.92
2018-12-02T08:10:20.053Z,8.93
2018-12-02T08:11:19.716Z,8.95
2018-12-02T08:12:19.915Z,8.95
2018-12-02T08:13:19.947Z,8.98
2018-12-02T08:14:19.986Z,9
2018-12-02T08:15:19.934Z,9
2018-12-02T08:16:20.087Z,9.04
2018-12-02T08:17:19.975Z,9.09
2018-12-02T08:18:20.175Z,9.06
2018-12-02T08:19:20.044Z,9.14
2018-12-02T08:20:19.693Z,9.14
2018-12-02T08:21:19.923Z,9.16
2018-12-02T08:22:19.693Z,9.17
2018-12-02T08:23:19.685Z,9.24
2018-12-02T08:24:19.777Z,9.2
2018-12-02T08:25:19.952Z,9.21
2018-12-02T08:26:19.732Z,9.24
2018-12-02T08:27:19.725Z,9.26
2018-12-02T08:28:20.026Z,9.29
2018-12-02T08:29:20.199Z,9.27
2018-12-02T08:30:19.911Z,9.29
2018-12-02T08:31:19.794Z,9.27
2018-12-02T08:32:19.664Z,9.27
2018-12-02T08:33:19.666Z,9.29
2018-12-02T08:34:20.032Z,9.34
2018-12-02T08:35:19.936Z,9.35
2018-12-02T08:36:19.950Z,9.37
2018-12-02T08:37:19.681Z,9.42
2018-12-02T08:38:19.668Z,9.38
2018-12-02T08:39:19.919Z,9.41
2018-12-02T08:40:20.762Z,9.4
2018-12-02T08:41:19.759Z,9.4
2018-12-02T08:42:19.842Z,9.44
2018-12-02T08:43:19.862Z,9.4
2018-12-02T08:44:19.661Z,9.44
2018-12-02T08:45:19.695Z,9.42
2018-12-02T08:46:19.829Z,9.44
2018-12-02T08:47:19.959Z,9.44
2018-12-02T08:48:19.657Z,9.47
2018-12-02T08:49:19.810Z,9.48
2018-12-02T08:50:19.851Z,9.47
2018-12-02T08:51:19.667Z,9.48
2018-12-02T08:52:19.728Z,9.49
2018-12-02T08:53:19.953Z,9.49
2018-12-02T08:54:19.683Z,9.51
2018-12-02T08:55:19.737Z,9.51
2018-12-02T08:56:19.812Z,9.51
2018-12-02T08:57:19.692Z,9.52
2018-12-02T08:58:19.683Z,9.52
2018-12-02T08:59:19.834Z,9.55
2018-12-02T09:00:19.798Z,9.54
2018-12-02T09:01:19.809Z,9.57
2018-12-02T09:02:19.823Z,9.55
2018-12-02T09:03:19.754Z,9.57
2018-12-02T09:04:19.685Z,9.55
2018-12-02T09:05:19.783Z,9.58
2018-12-02T09:06:19.753Z,9.59
2018-12-02T09:07:19.688Z,9.66
2018-12-02T09:08:19.853Z,9.69
2018-12-02T09:09:19.847Z,9.7
2018-12-02T09:10:19.712Z,9.72
2018-12-02T09:11:19.717Z,9.68
2018-12-02T09:12:19.799Z,9.7
2018-12-02T09:13:19.630Z,9.68
2018-12-02T09:14:19.756Z,9.73
2018-12-02T09:15:19.999Z,9.78
2018-12-02T09:16:19.977Z,9.75
2018-12-02T09:17:19.708Z,9.78
2018-12-02T09:18:19.613Z,9.81
2018-12-02T09:19:19.746Z,9.82
2018-12-02T09:20:19.665Z,9.79
2018-12-02T09:21:19.637Z,9.81
2018-12-02T09:22:19.667Z,9.82
2018-12-02T09:23:19.648Z,9.83
2018-12-02T09:24:19.611Z,9.82
2018-12-02T09:25:19.631Z,9.86
2018-12-02T09:26:19.656Z,9.89
2018-12-02T09:27:19.666Z,9.88
2018-12-02T09:28:19.880Z,9.89
2018-12-02T09:29:19.651Z,9.89
2018-12-02T09:30:19.670Z,9.9
2018-12-02T09:31:19.734Z,9.88
2018-12-02T09:32:19.696Z,9.92
2018-12-02T09:33:19.614Z,9.94
2018-12-02T09:34:19.646Z,9.94
2018-12-02T09:35:19.657Z,9.89
2018-12-02T09:36:20.183Z,9.96
2018-12-02T09:37:20.837Z,9.96
2018-12-02T09:38:19.581Z,9.97
2018-12-02T09:39:19.774Z,9.97
2018-12-02T09:40:19.671Z,9.94
2018-12-02T09:41:19.801Z,9.96
2018-12-02T09:42:19.716Z,9.96
2018-12-02T09:43:20.128Z,9.96
2018-12-02T09:44:19.652Z,10.02
2018-12-02T09:45:19.648Z,10.03
2018-12-02T09:46:19.611Z,10.06
2018-12-02T09:47:19.741Z,10.02
2018-12-02T09:48:19.723Z,10.06
2018-12-02T09:49:19.792Z,10.06
2018-12-02T09:50:20.771Z,10.06
2018-12-02T09:51:19.837Z,10.04
2018-12-02T09:52:19.964Z,10.02
2018-12-02T09:53:19.826Z,10.06
2018-12-02T09:54:23.520Z,10.06
2018-12-02T09:55:19.642Z,10.04
2018-12-02T09:56:19.606Z,10.04
2018-12-02T09:57:19.714Z,10.02
2018-12-02T09:58:20.008Z,10.04
2018-12-02T09:59:19.595Z,10.03
2018-12-02T10:00:19.587Z,10.03
2018-12-02T10:01:19.774Z,10.06
2018-12-02T10:02:19.715Z,10.06
2018-12-02T10:03:19.824Z,10.06
2018-12-02T10:04:19.872Z,10.06
2018-12-02T10:05:19.627Z,10.06
2018-12-02T10:06:19.712Z,10.07
2018-12-02T10:07:19.787Z,10.07
2018-12-02T10:08:19.798Z,10.06
2018-12-02T10:09:22.210Z,10.07
2018-12-02T10:10:23.254Z,10.07
2018-12-02T10:11:19.799Z,10.07
2018-12-02T10:12:19.769Z,10.07
2018-12-02T10:13:19.792Z,10.04
2018-12-02T10:14:19.736Z,10.07
2018-12-02T10:15:19.826Z,10.07
2018-12-02T10:16:19.726Z,10.09
2018-12-02T10:17:19.729Z,10.03
2018-12-02T10:18:19.647Z,10.04
2018-12-02T10:19:19.864Z,10.04
2018-12-02T10:20:20.839Z,10.07
2018-12-02T10:21:19.653Z,10.04
2018-12-02T10:22:19.557Z,10.07
2018-12-02T10:23:19.663Z,10.09
2018-12-02T10:24:19.628Z,10.09
2018-12-02T10:25:19.643Z,10.06
2018-12-02T10:26:19.662Z,10.06
2018-12-02T10:27:19.647Z,10.06
2018-12-02T10:28:19.561Z,10.06
2018-12-02T10:29:19.658Z,10.06
2018-12-02T10:30:19.739Z,10.07
2018-12-02T10:31:19.782Z,10.07
2018-12-02T10:32:19.657Z,10.09
2018-12-02T10:33:19.588Z,10.09
2018-12-02T10:34:19.598Z,10.07
2018-12-02T10:35:19.629Z,10.07
2018-12-02T10:36:19.689Z,10.11
2018-12-02T10:37:19.822Z,10.09
2018-12-02T10:38:19.688Z,10.13
2018-12-02T10:39:19.588Z,10.11
2018-12-02T10:40:19.581Z,10.11
2018-12-02T10:41:19.625Z,10.14
2018-12-02T10:42:19.957Z,10.13
2018-12-02T10:43:19.936Z,10.14
2018-12-02T10:44:19.586Z,10.14
2018-12-02T10:45:19.506Z,10.17
2018-12-02T10:46:19.718Z,10.2
2018-12-02T10:47:19.629Z,10.23
2018-12-02T10:48:19.665Z,10.24
2018-12-02T10:49:19.659Z,10.27
2018-12-02T10:50:19.541Z,10.27
2018-12-02T10:51:19.725Z,10.27
2018-12-02T10:52:19.683Z,10.24
2018-12-02T10:53:19.739Z,10.28
2018-12-02T10:54:19.557Z,10.32
2018-12-02T10:55:19.600Z,10.34
2018-12-02T10:56:19.498Z,10.32
2018-12-02T10:57:19.508Z,10.38
2018-12-02T10:58:19.561Z,10.37
2018-12-02T10:59:19.577Z,10.35
2018-12-02T11:00:19.546Z,10.39
2018-12-02T11:01:22.975Z,10.45
2018-12-02T11:02:25.399Z,10.47
2018-12-02T11:03:21.653Z,10.48
2018-12-02T11:04:22.299Z,10.48
2018-12-02T11:05:24.939Z,10.48
2018-12-02T11:06:23.913Z,10.48
2018-12-02T11:07:20.824Z,10.47
2018-12-02T11:08:22.355Z,10.47
2018-12-02T11:09:25.177Z,10.51
2018-12-02T11:10:22.899Z,10.49
2018-12-02T11:11:23.906Z,10.49
2018-12-02T11:12:34.384Z,10.52
2018-12-02T11:13:23.580Z,10.53
2018-12-02T11:14:26.579Z,10.53
2018-12-02T11:15:44.579Z,10.52
2018-12-02T11:16:22.269Z,10.55
2018-12-02T11:17:21.292Z,10.55
2018-12-02T11:18:22.086Z,10.55
2018-12-02T11:19:21.399Z,10.58
2018-12-02T11:20:31.151Z,10.61
2018-12-02T11:21:30.924Z,10.62
2018-12-02T11:22:23.560Z,10.62
2018-12-02T11:23:22.901Z,10.64
2018-12-02T11:24:26.034Z,10.64
2018-12-02T11:25:21.977Z,10.66
2018-12-02T11:26:22.915Z,10.68
2018-12-02T11:27:24.747Z,10.65
2018-12-02T11:28:19.375Z,10.68
2018-12-02T11:29:19.679Z,10.69
2018-12-02T11:30:19.455Z,10.69
2018-12-02T11:31:19.683Z,10.73
2018-12-02T11:32:19.459Z,10.75
2018-12-02T11:33:19.627Z,10.75
2018-12-02T11:34:19.514Z,10.73
2018-12-02T11:35:19.499Z,10.76
2018-12-02T11:36:19.549Z,10.78
2018-12-02T11:37:19.585Z,10.8
2018-12-02T11:38:19.846Z,10.82
2018-12-02T11:39:19.524Z,10.84
2018-12-02T11:40:19.648Z,10.83
2018-12-02T11:41:19.512Z,10.86
2018-12-02T11:42:19.704Z,10.87
2018-12-02T11:43:19.609Z,10.92
2018-12-02T11:44:19.639Z,10.87
2018-12-02T11:45:19.547Z,10.93
2018-12-02T11:46:19.457Z,10.92
2018-12-02T11:47:19.825Z,10.93
2018-12-02T11:48:20.011Z,10.92
2018-12-02T11:49:19.640Z,10.9
2018-12-02T11:50:23.672Z,10.93
2018-12-02T11:51:21.855Z,10.99
2018-12-02T11:52:19.494Z,10.99
2018-12-02T11:53:19.632Z,10.94
2018-12-02T11:54:19.449Z,11.01
2018-12-02T11:55:19.649Z,10.97
2018-12-02T11:56:19.551Z,11
2018-12-02T11:57:19.555Z,10.99
2018-12-02T11:58:19.509Z,11
2018-12-02T11:59:19.416Z,11
2018-12-02T12:00:19.552Z,11.01
2018-12-02T12:01:19.628Z,11.03
2018-12-02T12:02:19.538Z,11.03
2018-12-02T12:03:19.505Z,11.04
2018-12-02T12:04:19.476Z,11.01
2018-12-02T12:05:19.592Z,11.04
2018-12-02T12:06:19.680Z,11.03
2018-12-02T12:07:19.564Z,11.11
2018-12-02T12:08:19.470Z,11.11
2018-12-02T12:09:19.429Z,11.11
2018-12-02T12:10:19.638Z,11.11
2018-12-02T12:11:19.569Z,11.11
2018-12-02T12:12:19.678Z,11.14
2018-12-02T12:13:19.445Z,11.14
2018-12-02T12:14:19.443Z,11.12
2018-12-02T12:15:19.650Z,11.17
2018-12-02T12:16:19.456Z,11.17
2018-12-02T12:17:19.583Z,11.17
2018-12-02T12:18:19.592Z,11.18
2018-12-02T12:19:19.439Z,11.18
2018-12-02T12:20:22.974Z,11.15
2018-12-02T12:21:20.626Z,11.17
2018-12-02T12:22:19.457Z,11.21
2018-12-02T12:23:20.250Z,11.25
2018-12-02T12:24:19.574Z,11.22
2018-12-02T12:25:19.534Z,11.27
2018-12-02T12:26:19.419Z,11.22
2018-12-02T12:27:19.498Z,11.22
2018-12-02T12:28:19.403Z,11.21
2018-12-02T12:29:19.556Z,11.22
2018-12-02T12:30:19.544Z,11.22
2018-12-02T12:31:19.798Z,11.25
2018-12-02T12:32:19.374Z,11.25
2018-12-02T12:33:19.410Z,11.25
2018-12-02T12:34:19.476Z,11.28
2018-12-02T12:35:19.450Z,11.3
2018-12-02T12:36:19.417Z,11.28
2018-12-02T12:37:19.412Z,11.28
2018-12-02T12:38:19.414Z,11.32
2018-12-02T12:39:20.397Z,11.3
2018-12-02T12:40:19.461Z,11.28
2018-12-02T12:41:19.465Z,11.24
2018-12-02T12:42:19.681Z,11.28
2018-12-02T12:43:19.450Z,11.32
2018-12-02T12:44:19.410Z,11.31
2018-12-02T12:45:19.444Z,11.31
2018-12-02T12:46:19.401Z,11.28
2018-12-02T12:47:19.444Z,11.3
2018-12-02T12:48:19.430Z,11.3
2018-12-02T12:49:20.394Z,11.25
2018-12-02T12:50:19.380Z,11.27
2018-12-02T12:51:19.429Z,11.27
2018-12-02T12:52:19.368Z,11.24
2018-12-02T12:53:19.657Z,11.27
2018-12-02T12:54:19.377Z,11.3
2018-12-02T12:55:19.402Z,11.24
2018-12-02T12:56:19.595Z,11.25
2018-12-02T12:57:19.542Z,11.3
2018-12-02T12:58:19.748Z,11.28
2018-12-02T12:59:19.523Z,11.28
2018-12-02T13:00:19.475Z,11.27
2018-12-02T13:01:19.402Z,11.34
2018-12-02T13:02:19.440Z,11.35
2018-12-02T13:03:19.433Z,11.37
2018-12-02T13:04:19.415Z,11.34
2018-12-02T13:05:19.548Z,11.35
2018-12-02T13:06:19.487Z,11.37
2018-12-02T13:07:19.373Z,11.34
2018-12-02T13:08:19.516Z,11.35
2018-12-02T13:09:19.530Z,11.34
2018-12-02T13:10:19.787Z,11.34
2018-12-02T13:11:19.365Z,11.32
2018-12-02T13:12:19.513Z,11.35
2018-12-02T13:13:19.417Z,11.37
2018-12-02T13:14:19.564Z,11.34
2018-12-02T13:15:19.326Z,11.32
2018-12-02T13:16:19.404Z,11.34
2018-12-02T13:17:19.496Z,11.39